Time;durP1;ratioP1;P1;durP2;ratioP2;P2;SDS_P1;SDS_P2;PMS_P1;PMS_P2;Temp;Humidity;BMP_temperature;BMP_pressure;BME280_temperature;BME280_humidity;BME280_pressure;Samples;Min_cycle;Max_cycle;Signal;HPM_P1;HPM_P2
2022/01/19 00:00:25;;;;;;;0.60;0.60;;;;;;;-2.35;60.38;93317.00;4937597;28;20724;-71
2022/01/19 00:02:53;;;;;;;1.13;1.13;;;;;;;-1.94;59.88;93349.00;4937324;28;20566;-71
2022/01/19 00:05:21;;;;;;;1.33;0.93;;;;;;;-1.93;58.66;93358.94;4927796;28;20543;-71
2022/01/19 00:07:48;;;;;;;0.60;0.60;;;;;;;-1.92;57.66;93389.50;4919988;28;20517;-71
2022/01/19 00:10:19;;;;;;;3.03;0.97;;;;;;;-1.83;58.15;93377.25;4937862;28;20500;-71
2022/01/19 00:12:46;;;;;;;0.67;0.67;;;;;;;-1.76;58.39;93388.91;4937442;28;20597;-71
2022/01/19 00:15:14;;;;;;;0.70;0.70;;;;;;;-2.16;58.41;93394.84;4937207;28;20461;-71
2022/01/19 00:17:42;;;;;;;0.77;0.77;;;;;;;-2.18;59.82;93403.88;4937217;28;20558;-71
2022/01/19 00:20:11;;;;;;;1.13;1.13;;;;;;;-2.43;60.27;93395.22;4936969;28;20572;-71
2022/01/19 00:22:39;;;;;;;1.43;1.43;;;;;;;-2.77;60.81;93350.91;4937699;28;20649;-71
2022/01/19 00:25:07;;;;;;;1.23;1.23;;;;;;;-2.71;60.67;93380.69;4936761;28;20647;-71
2022/01/19 00:27:35;;;;;;;0.70;0.70;;;;;;;-2.85;61.31;93377.94;4936823;28;20235;-71
2022/01/19 00:30:02;;;;;;;0.90;0.90;;;;;;;-2.84;61.79;93367.25;4936766;28;20602;-71
2022/01/19 00:32:30;;;;;;;2.03;0.93;;;;;;;-2.79;61.94;93370.63;4936705;28;20540;-71
2022/01/19 00:34:57;;;;;;;1.10;1.10;;;;;;;-3.10;62.84;93364.25;4936875;28;20616;-72
2022/01/19 00:37:26;;;;;;;0.80;0.80;;;;;;;-3.19;63.08;93383.00;4936819;28;20668;-71
2022/01/19 00:39:54;;;;;;;0.60;0.60;;;;;;;-3.40;64.05;93378.47;4936932;28;20625;-71
2022/01/19 00:42:21;;;;;;;0.97;0.97;;;;;;;-3.60;65.18;93378.00;4937052;28;20668;-71
2022/01/19 00:44:48;;;;;;;0.93;0.93;;;;;;;-3.68;65.93;93373.72;4936318;28;20261;-71
2022/01/19 00:47:17;;;;;;;0.90;0.90;;;;;;;-3.86;66.64;93356.88;4937130;28;20500;-71
2022/01/19 00:49:45;;;;;;;0.97;0.97;;;;;;;-3.95;66.33;93359.13;4937333;28;20230;-71
2022/01/19 00:52:12;;;;;;;3.33;1.33;;;;;;;-3.85;67.08;93388.16;4936813;28;20654;-71
2022/01/19 00:54:42;;;;;;;2.10;1.10;;;;;;;-3.91;67.82;93385.53;4936541;28;20578;-71
2022/01/19 00:57:10;;;;;;;0.73;0.73;;;;;;;-4.03;67.71;93375.38;4936624;28;20650;-71
2022/01/19 00:59:37;;;;;;;0.50;0.50;;;;;;;-4.12;67.49;93376.03;4937283;28;20629;-71
2022/01/19 01:02:06;;;;;;;0.60;0.60;;;;;;;-4.09;67.69;93362.91;4936456;28;20592;-71
2022/01/19 01:04:33;;;;;;;0.90;0.90;;;;;;;-4.00;67.79;93382.88;4936217;28;20506;-71
2022/01/19 01:07:02;;;;;;;0.73;0.73;;;;;;;-4.01;67.83;93377.09;4936208;28;20230;-71
2022/01/19 01:09:29;;;;;;;1.00;1.00;;;;;;;-4.05;67.28;93376.97;4936058;28;20602;-71
2022/01/19 01:12:01;;;;;;;0.80;0.80;;;;;;;-4.10;67.21;93380.97;4936942;28;20567;-71
2022/01/19 01:19:57;;;;;;;0.80;0.80;;;;;;;-4.19;68.86;93396.38;4936578;28;20594;-71
2022/01/19 01:22:24;;;;;;;0.70;0.70;;;;;;;-4.19;68.05;93396.38;4936513;28;20495;-71
2022/01/19 01:24:52;;;;;;;0.70;0.70;;;;;;;-4.12;68.12;93408.09;4936546;28;20586;-71
2022/01/19 01:27:20;;;;;;;0.80;0.80;;;;;;;-3.99;69.35;93401.78;4936328;28;20621;-71
2022/01/19 01:29:47;;;;;;;0.70;0.70;;;;;;;-4.13;67.69;93395.69;4936241;28;20500;-71
2022/01/19 01:32:15;;;;;;;1.87;1.77;;;;;;;-4.02;67.45;93412.44;4936929;28;20209;-71
2022/01/19 01:34:42;;;;;;;0.50;0.50;;;;;;;-4.05;67.43;93404.09;4936289;28;20549;-71
2022/01/19 01:37:10;;;;;;;0.50;0.50;;;;;;;-4.14;67.25;93384.16;4936338;28;20632;-71
2022/01/19 01:39:37;;;;;;;0.60;0.60;;;;;;;-3.91;67.68;93393.78;4936423;28;20579;-71
2022/01/19 01:42:09;;;;;;;0.80;0.80;;;;;;;-3.88;67.31;93388.91;4936083;28;20643;-71
2022/01/19 01:44:40;;;;;;;0.60;0.60;;;;;;;-3.95;67.25;93376.41;4939482;28;20534;-71
2022/01/19 01:47:09;;;;;;;1.20;1.17;;;;;;;-3.95;67.14;93364.06;4940058;28;20648;-71
2022/01/19 01:53:16;;;;;;;0.70;0.70;;;;;;;-3.99;66.81;93355.75;4940114;28;20348;-71
2022/01/19 01:55:19;;;;;;;0.60;0.60;;;;;;;-3.94;65.95;93385.47;4940872;28;20475;-71
2022/01/19 01:57:46;;;;;;;0.60;0.60;;;;;;;-4.07;66.13;93379.44;4940485;28;20602;-71
2022/01/19 02:00:18;;;;;;;0.73;0.73;;;;;;;-4.07;66.80;93386.00;4940059;28;20463;-71
2022/01/19 02:02:47;;;;;;;1.33;1.33;;;;;;;-4.18;67.06;93371.78;4939504;28;20609;-71
2022/01/19 02:05:15;;;;;;;1.20;1.07;;;;;;;-4.30;66.70;93354.22;4939980;28;20501;-71
2022/01/19 02:07:59;;;;;;;0.60;0.60;;;;;;;-4.12;67.44;93377.66;4939510;28;20629;-71
2022/01/19 02:10:34;;;;;;;1.33;1.33;;;;;;;-4.17;67.40;93362.75;4939541;28;20536;-71
2022/01/19 02:16:14;;;;;;;1.30;1.30;;;;;;;-4.24;67.85;93351.06;4939638;28;20588;-71
2022/01/19 02:21:39;;;;;;;1.33;1.33;;;;;;;-4.49;68.38;93324.13;4940398;28;20611;-71
2022/01/19 02:24:10;;;;;;;1.50;1.50;;;;;;;-4.29;68.08;93350.94;4939258;28;20558;-71
2022/01/19 02:26:52;;;;;;;1.13;1.13;;;;;;;-4.35;67.81;93355.72;4939068;28;20231;-71
2022/01/19 02:29:44;;;;;;;0.80;0.80;;;;;;;-4.42;68.22;93344.03;4939434;28;20204;-72
2022/01/19 02:40:28;;;;;;;1.27;1.27;;;;;;;-4.51;68.44;93315.88;4931607;28;20600;-72
2022/01/19 02:43:06;;;;;;;0.60;0.60;;;;;;;-4.29;68.54;93336.16;4938916;28;20566;-72
2022/01/19 02:51:05;;;;;;;0.50;0.50;;;;;;;-4.56;68.85;93323.13;4939857;28;20226;-72
2022/01/19 02:53:36;;;;;;;0.63;0.63;;;;;;;-4.56;69.26;93325.59;4938799;28;20208;-72
2022/01/19 02:56:09;;;;;;;0.97;0.97;;;;;;;-4.50;69.59;93330.69;4938699;28;20493;-72
2022/01/19 02:58:42;;;;;;;0.70;0.70;;;;;;;-4.50;69.09;93328.22;4938795;28;20571;-72
2022/01/19 03:09:24;;;;;;;0.57;0.57;;;;;;;-4.53;69.13;93338.03;4938942;28;20581;-72
2022/01/19 03:11:53;;;;;;;0.70;0.70;;;;;;;-4.70;69.95;93317.88;4938797;28;20605;-72
2022/01/19 03:14:21;;;;;;;0.80;0.80;;;;;;;-4.49;70.30;93339.75;4939095;28;20563;-72
2022/01/19 03:16:51;;;;;;;1.10;1.10;;;;;;;-4.46;70.38;93339.84;4938816;28;20492;-72
2022/01/19 03:19:18;;;;;;;0.70;0.70;;;;;;;-4.51;70.58;93333.13;4938697;28;20514;-72
2022/01/19 03:21:45;;;;;;;0.70;0.70;;;;;;;-4.54;71.63;93348.66;4938217;28;20597;-72
2022/01/19 03:24:13;;;;;;;1.10;1.10;;;;;;;-4.65;69.48;93333.63;4938246;28;20568;-72
2022/01/19 03:26:42;;;;;;;1.07;1.07;;;;;;;-4.58;68.82;93346.09;4937751;28;20632;-72
2022/01/19 03:29:09;;;;;;;1.07;1.07;;;;;;;-4.61;69.16;93352.59;4937430;28;20521;-72
2022/01/19 03:31:36;;;;;;;1.00;1.00;;;;;;;-4.64;69.22;93345.16;4938061;28;20683;-72
2022/01/19 03:34:05;;;;;;;0.90;0.90;;;;;;;-4.70;69.13;93340.06;4938575;28;20489;-72
2022/01/19 03:36:33;;;;;;;0.50;0.50;;;;;;;-4.73;69.83;93349.03;4938581;28;20647;-72
2022/01/19 03:39:00;;;;;;;0.63;0.63;;;;;;;-4.77;69.65;93349.72;4938021;28;20211;-72
2022/01/19 03:41:28;;;;;;;0.67;0.67;;;;;;;-4.95;69.96;93334.44;4937947;28;20582;-72
2022/01/19 03:43:56;;;;;;;0.57;0.57;;;;;;;-4.90;69.87;93343.63;4938179;28;20956;-72
2022/01/19 03:46:32;;;;;;;0.70;0.70;;;;;;;-4.78;69.54;93352.97;4938471;28;20616;-72
2022/01/19 03:49:09;;;;;;;1.10;1.10;;;;;;;-5.04;69.38;93323.56;4937588;28;20252;-71
2022/01/19 03:51:37;;;;;;;0.50;0.50;;;;;;;-4.83;70.38;93360.25;4938115;28;20239;-72
2022/01/19 03:54:05;;;;;;;0.57;0.57;;;;;;;-5.14;70.67;93316.75;4937837;28;20659;-72
2022/01/19 03:56:32;;;;;;;1.10;1.10;;;;;;;-4.79;70.21;93366.09;4937775;28;20485;-72
2022/01/19 03:59:01;;;;;;;0.80;0.80;;;;;;;-4.79;69.90;93362.00;4938074;28;20555;-72
2022/01/19 04:01:28;;;;;;;1.00;1.00;;;;;;;-4.93;69.37;93355.88;4937586;28;20574;-72
2022/01/19 04:04:16;;;;;;;1.33;1.33;;;;;;;-4.83;70.08;93362.72;4937537;28;20501;-72
2022/01/19 04:06:57;;;;;;;4.43;2.70;;;;;;;-4.78;69.52;93366.13;4937171;28;20204;-72
2022/01/19 04:09:25;;;;;;;1.77;1.53;;;;;;;-4.80;69.50;93354.56;4937859;28;20318;-72
2022/01/19 04:11:53;;;;;;;0.70;0.70;;;;;;;-4.64;69.58;93364.88;4937559;28;20240;-72
2022/01/19 04:14:25;;;;;;;0.80;0.80;;;;;;;-4.57;69.35;93365.03;4937497;28;20586;-72
2022/01/19 04:16:53;;;;;;;0.90;0.90;;;;;;;-4.56;68.33;93356.84;4937219;28;20529;-72
2022/01/19 04:19:27;;;;;;;1.43;1.33;;;;;;;-4.46;68.17;93371.91;4937415;28;20209;-72
2022/01/19 04:21:56;;;;;;;0.50;0.50;;;;;;;-4.56;68.46;93351.91;4936684;28;20597;-72
2022/01/19 04:24:24;;;;;;;1.17;1.17;;;;;;;-4.24;67.86;93380.66;4937478;28;20612;-72
2022/01/19 04:29:39;;;;;;;0.83;0.83;;;;;;;-3.81;64.29;93385.78;4929447;28;20516;-72
2022/01/19 04:32:11;;;;;;;0.53;0.53;;;;;;;-3.57;63.75;93384.66;4936680;28;20671;-72
2022/01/19 04:34:41;;;;;;;0.80;0.80;;;;;;;-3.43;62.87;93384.16;4937077;28;20541;-72
2022/01/19 04:48:36;;;;;;;0.60;0.60;;;;;;;-3.44;62.53;93404.75;4906984;28;20620;-72
2022/01/19 04:54:34;;;;;;;1.47;1.47;;;;;;;-3.76;63.68;93391.66;4936928;28;20218;-71
2022/01/19 05:02:56;;;;;;;0.80;0.80;;;;;;;-4.22;65.36;93394.66;4936969;28;20636;-72
2022/01/19 05:05:28;;;;;;;1.87;1.77;;;;;;;-4.27;66.28;93396.19;4936474;28;20581;-72
2022/01/19 05:08:00;;;;;;;1.37;1.37;;;;;;;-4.34;66.74;93413.28;4936023;28;20603;-71
2022/01/19 05:13:29;;;;;;;0.77;0.77;;;;;;;-4.42;67.45;93408.16;4937013;28;20592;-72
2022/01/19 05:15:56;;;;;;;1.43;1.43;;;;;;;-4.44;67.43;93414.66;4936829;28;20565;-72
2022/01/19 05:18:25;;;;;;;5.43;5.23;;;;;;;-4.42;67.48;93415.53;4939095;28;20529;-72
2022/01/19 05:20:52;;;;;;;4.43;4.23;;;;;;;-4.42;68.28;93418.00;4940309;28;20573;-72
2022/01/19 05:23:20;;;;;;;1.63;1.63;;;;;;;-4.38;67.43;93422.22;4941420;28;20208;-72
2022/01/19 05:25:47;;;;;;;1.17;1.17;;;;;;;-4.53;67.30;93409.50;4940022;28;20476;-72
2022/01/19 05:28:16;;;;;;;1.17;1.17;;;;;;;-4.53;67.82;93421.00;4940020;28;20647;-72
2022/01/19 05:30:43;;;;;;;1.40;1.30;;;;;;;-4.70;67.17;93401.69;4940229;28;20591;-73
2022/01/19 05:33:35;;;;;;;3.50;2.13;;;;;;;-4.60;67.71;93434.78;4934422;28;20566;-72
2022/01/19 05:36:34;;;;;;;3.70;3.53;;;;;;;-4.67;68.13;93430.47;4933259;28;20235;-74
2022/01/19 05:39:09;;;;;;;2.70;2.50;;;;;;;-5.11;68.11;93375.09;4932029;28;20478;-72
2022/01/19 05:45:12;;;;;;;1.50;1.50;;;;;;;-4.75;69.18;93456.56;4937508;28;20239;-73
2022/01/19 05:47:50;;;;;;;2.53;2.33;;;;;;;-4.80;69.14;93439.19;4935301;28;20619;-72
2022/01/19 05:50:22;;;;;;;2.37;2.37;;;;;;;-4.70;68.80;93445.19;4937256;28;20488;-72
2022/01/19 05:53:00;;;;;;;5.77;2.40;;;;;;;-4.88;68.72;93437.28;4935374;28;20601;-73
2022/01/19 05:55:33;;;;;;;1.03;1.03;;;;;;;-5.14;68.72;93420.19;4932806;28;20559;-71
2022/01/19 05:58:05;;;;;;;1.50;1.50;;;;;;;-4.92;68.74;93446.25;4936044;28;20196;-72
2022/01/19 06:00:36;;;;;;;1.43;1.33;;;;;;;-5.26;69.11;93409.97;4936472;28;20497;-71
2022/01/19 06:03:03;;;;;;;1.60;1.60;;;;;;;-4.97;69.90;93471.53;4937724;28;20566;-71
2022/01/19 06:05:31;;;;;;;1.23;1.23;;;;;;;-4.91;69.91;93465.16;4936656;28;20257;-71
2022/01/19 06:08:16;;;;;;;2.10;2.10;;;;;;;-4.93;70.12;93473.28;4934961;28;20367;-71
2022/01/19 06:10:46;;;;;;;1.60;1.60;;;;;;;-4.88;70.36;93477.56;4937443;28;20621;-70
2022/01/19 06:13:15;;;;;;;2.27;2.07;;;;;;;-4.86;70.02;93478.44;4937373;28;20213;-71
2022/01/19 06:15:44;;;;;;;5.83;4.47;;;;;;;-4.86;70.18;93494.84;4938162;28;20459;-71
2022/01/19 06:18:11;;;;;;;10.37;9.47;;;;;;;-4.70;68.80;93499.41;4937401;28;20571;-71
2022/01/19 06:20:39;;;;;;;6.80;6.20;;;;;;;-4.87;69.81;93495.66;4936489;28;20563;-70
2022/01/19 06:23:08;;;;;;;4.27;1.47;;;;;;;-4.97;69.55;93492.09;4937726;28;20602;-71
2022/01/19 06:25:36;;;;;;;1.63;1.63;;;;;;;-4.94;70.44;93515.97;4938894;28;20209;-72
2022/01/19 06:28:04;;;;;;;1.13;1.07;;;;;;;-5.07;71.11;93487.69;4935961;28;20619;-73
2022/01/19 06:30:31;;;;;;;1.60;1.60;;;;;;;-4.95;70.97;93501.97;4936353;28;20620;-74
2022/01/19 06:32:59;;;;;;;1.80;1.67;;;;;;;-4.96;71.56;93505.25;4937658;28;20669;-71
2022/01/19 06:35:26;;;;;;;1.63;1.63;;;;;;;-5.04;71.92;93495.16;4934969;28;20201;-72
2022/01/19 06:37:53;;;;;;;0.63;0.63;;;;;;;-4.94;72.28;93506.09;4936753;28;20585;-71
2022/01/19 06:40:25;;;;;;;1.23;1.23;;;;;;;-4.77;72.26;93507.41;4937211;28;20229;-72
2022/01/19 06:42:54;;;;;;;1.20;1.20;;;;;;;-4.67;71.20;93511.81;4934760;28;20269;-71
2022/01/19 06:45:22;;;;;;;1.17;1.17;;;;;;;-4.52;70.77;93526.22;4934979;28;20608;-72
2022/01/19 06:47:50;;;;;;;0.63;0.63;;;;;;;-4.41;69.93;93530.66;4935391;28;20597;-72
2022/01/19 06:50:19;;;;;;;0.90;0.90;;;;;;;-4.42;69.44;93528.97;4938230;28;20717;-72
2022/01/19 06:52:48;;;;;;;1.10;1.10;;;;;;;-4.34;69.70;93534.94;4934795;28;20509;-72
2022/01/19 06:55:19;;;;;;;1.10;1.10;;;;;;;-4.41;69.54;93525.72;4935529;28;20566;-72
2022/01/19 06:57:49;;;;;;;1.73;1.73;;;;;;;-4.29;69.81;93530.16;4936291;28;20208;-73
2022/01/19 07:00:17;;;;;;;4.07;1.90;;;;;;;-4.12;69.49;93538.84;4936594;28;20545;-72
2022/01/19 07:02:44;;;;;;;1.00;1.00;;;;;;;-4.05;69.26;93530.78;4936644;28;20494;-71
2022/01/19 07:05:12;;;;;;;2.30;1.27;;;;;;;-3.96;68.97;93525.25;4935985;28;20503;-72
2022/01/19 07:07:39;;;;;;;2.77;2.67;;;;;;;-3.82;68.78;93526.44;4936236;28;20503;-72
2022/01/19 07:10:08;;;;;;;1.70;1.63;;;;;;;-3.65;68.28;93522.75;4935822;28;20701;-72
2022/01/19 07:12:46;;;;;;;2.27;2.17;;;;;;;-3.37;68.46;93522.59;4938237;28;20604;-72
2022/01/19 07:15:19;;;;;;;5.27;4.87;;;;;;;-3.27;67.99;93503.06;4935530;28;20536;-72
2022/01/19 07:18:03;;;;;;;5.00;4.60;;;;;;;-3.04;67.31;93521.69;4935838;28;20202;-72
2022/01/19 07:20:59;;;;;;;3.07;2.77;;;;;;;-2.99;67.05;93522.66;4932783;28;20595;-72
2022/01/19 07:23:59;;;;;;;2.67;2.57;;;;;;;-3.10;67.76;93470.50;4932270;28;20493;-72
2022/01/19 07:26:29;;;;;;;1.70;1.70;;;;;;;-2.60;67.86;93511.16;4931845;28;20215;-72
2022/01/19 07:28:56;;;;;;;2.70;2.60;;;;;;;-2.87;67.24;93450.41;4931638;28;20642;-72
2022/01/19 07:31:28;;;;;;;3.47;3.37;;;;;;;-2.44;66.83;93492.50;4932500;28;20636;-71
2022/01/19 07:34:06;;;;;;;3.77;3.57;;;;;;;-2.25;66.34;93492.03;4936198;28;20504;-73
2022/01/19 07:36:34;;;;;;;2.47;2.37;;;;;;;-1.99;65.38;93524.69;4933424;28;20498;-71
2022/01/19 07:39:01;;;;;;;1.70;1.70;;;;;;;-1.83;65.25;93519.22;4934097;28;20516;-72
2022/01/19 07:41:28;;;;;;;2.33;2.33;;;;;;;-1.69;64.72;93532.66;4932164;28;20574;-72
2022/01/19 07:43:55;;;;;;;1.40;1.40;;;;;;;-1.63;63.28;93546.00;4935257;28;20500;-72
2022/01/19 07:46:23;;;;;;;3.23;3.10;;;;;;;-1.69;62.78;93532.66;4933261;28;20476;-72
2022/01/19 07:48:52;;;;;;;4.97;4.70;;;;;;;-1.48;65.37;93526.44;4929889;28;21041;-72
2022/01/19 07:51:19;;;;;;;5.93;5.63;;;;;;;-1.59;65.88;93500.63;4934791;28;20543;-71
2022/01/19 07:53:47;;;;;;;2.40;2.30;;;;;;;-1.42;64.47;93519.94;4933348;28;20567;-71
2022/01/19 07:56:14;;;;;;;11.47;6.77;;;;;;;-1.39;64.18;93517.50;4935612;28;20546;-71
2022/01/19 07:58:45;;;;;;;9.37;8.63;;;;;;;-1.37;64.48;93525.78;4935772;28;20671;-72
2022/01/19 08:01:12;;;;;;;29.27;14.40;;;;;;;-1.37;64.33;93515.03;4935442;28;20287;-72
2022/01/19 08:03:40;;;;;;;32.60;19.00;;;;;;;-1.32;64.18;93525.84;4933489;28;20716;-71
2022/01/19 08:06:08;;;;;;;36.73;13.77;;;;;;;-1.23;63.90;93522.69;4934486;28;20531;-72
2022/01/19 08:08:36;;;;;;;6.27;5.80;;;;;;;-1.23;63.73;93533.44;4933822;28;20246;-72
2022/01/19 08:11:04;;;;;;;18.43;10.17;;;;;;;-1.16;62.93;93525.28;4935580;28;20561;-71
2022/01/19 08:13:37;;;;;;;16.60;9.63;;;;;;;-1.05;61.85;93538.69;4934741;28;20480;-71
2022/01/19 08:16:05;;;;;;;16.03;8.47;;;;;;;-0.96;61.70;93540.47;4932102;28;20494;-72
2022/01/19 08:18:32;;;;;;;4.60;4.37;;;;;;;-0.86;62.69;93537.31;4934592;28;20566;-72
2022/01/19 08:20:59;;;;;;;3.90;2.37;;;;;;;-0.98;60.02;93547.88;4934759;28;20506;-73
2022/01/19 08:23:29;;;;;;;2.63;1.93;;;;;;;-0.84;60.47;93543.94;4933960;28;20474;-73
2022/01/19 08:29:21;;;;;;;1.87;1.77;;;;;;;-0.76;59.01;93531.69;4931277;28;20529;-72
2022/01/19 08:31:57;;;;;;;2.83;2.80;;;;;;;-0.63;57.81;93559.97;4933554;28;20563;-72
2022/01/19 08:34:26;;;;;;;6.83;1.20;;;;;;;-0.53;57.07;93569.22;4937058;28;20569;-73
2022/01/19 08:36:56;;;;;;;3.07;2.10;;;;;;;-0.54;56.87;93552.66;4934661;28;20598;-72
2022/01/19 08:39:29;;;;;;;3.43;3.23;;;;;;;-0.44;57.56;93542.88;4934566;28;20485;-73
2022/01/19 08:42:02;;;;;;;3.67;2.67;;;;;;;-0.22;55.88;93566.31;4930033;28;20609;-72
2022/01/19 08:44:32;;;;;;;1.50;1.50;;;;;;;-0.20;56.76;93563.84;4927054;28;20596;-73
2022/01/19 08:47:05;;;;;;;1.97;1.90;;;;;;;-0.37;55.78;93526.41;4932409;28;20645;-72
2022/01/19 08:49:34;;;;;;;4.63;2.77;;;;;;;-0.29;56.31;93519.06;4934330;28;20497;-73
2022/01/19 08:52:06;;;;;;;1.10;1.10;;;;;;;-0.10;54.85;93575.56;4932218;28;20478;-72
2022/01/19 08:54:51;;;;;;;1.00;1.00;;;;;;;-0.12;54.64;93573.09;4930745;28;20636;-72
2022/01/19 08:57:25;;;;;;;2.63;2.43;;;;;;;-0.08;55.30;93559.88;4932553;28;20493;-72
2022/01/19 08:59:55;;;;;;;1.57;1.57;;;;;;;-0.07;53.72;93573.13;4934609;28;20609;-73
2022/01/19 09:02:24;;;;;;;1.67;1.67;;;;;;;-0.04;54.43;93558.25;4933941;28;20812;-72
2022/01/19 09:04:52;;;;;;;1.87;1.60;;;;;;;-0.10;54.49;93540.78;4932069;28;20534;-72
2022/01/19 09:07:20;;;;;;;1.83;1.50;;;;;;;-0.01;53.85;93550.84;4933824;28;20582;-73
2022/01/19 09:09:48;;;;;;;1.40;1.30;;;;;;;0.09;53.32;93572.50;4931715;28;20565;-71
2022/01/19 09:12:16;;;;;;;1.23;1.23;;;;;;;0.09;52.38;93579.13;4931508;28;20582;-71
2022/01/19 09:14:43;;;;;;;0.90;0.90;;;;;;;0.14;52.64;93575.03;4930334;28;20487;-70
2022/01/19 09:17:10;;;;;;;3.03;2.10;;;;;;;0.11;51.73;93555.13;4930936;28;20636;-72
2022/01/19 09:19:39;;;;;;;25.57;9.07;;;;;;;0.27;51.89;93570.22;4933829;28;20193;-71
2022/01/19 09:22:07;;;;;;;4.33;4.03;;;;;;;0.29;52.68;93535.44;4934863;28;20655;-71
2022/01/19 09:24:35;;;;;;;0.90;0.90;;;;;;;0.30;51.30;93547.03;4934821;28;20586;-71
2022/01/19 09:27:05;;;;;;;0.77;0.77;;;;;;;-0.02;51.92;93492.06;4933769;28;20465;-71
2022/01/19 09:29:32;;;;;;;3.20;2.77;;;;;;;0.29;51.85;93523.00;4932758;28;20623;-71
2022/01/19 09:32:01;;;;;;;3.40;3.10;;;;;;;0.40;52.44;93523.94;4933143;28;20484;-70
2022/01/19 09:34:29;;;;;;;3.20;2.90;;;;;;;0.57;52.64;93524.94;4933788;28;20602;-70
2022/01/19 09:36:56;;;;;;;1.70;1.70;;;;;;;0.77;51.29;93535.09;4933269;28;20597;-70
2022/01/19 09:39:26;;;;;;;3.87;3.67;;;;;;;0.94;51.19;93530.25;4931253;28;20553;-72
2022/01/19 09:41:55;;;;;;;1.50;1.50;;;;;;;0.80;50.05;93525.97;4933268;28;20651;-71
2022/01/19 09:44:25;;;;;;;1.20;1.20;;;;;;;0.58;50.25;93490.97;4932614;28;20613;-72
2022/01/19 09:46:53;;;;;;;1.57;1.57;;;;;;;0.84;50.60;93497.81;4932028;28;20555;-71
2022/01/19 09:49:22;;;;;;;5.60;4.93;;;;;;;0.89;51.63;93455.59;4929795;28;20556;-71
2022/01/19 09:51:53;;;;;;;3.67;2.83;;;;;;;1.32;51.13;93485.72;4932897;28;20618;-71
2022/01/19 09:54:22;;;;;;;21.77;9.50;;;;;;;1.52;48.35;93514.84;4933044;28;20473;-71
2022/01/19 09:56:50;;;;;;;3.20;2.90;;;;;;;1.58;46.54;93499.94;4932013;28;20283;-71
2022/01/19 09:59:17;;;;;;;1.83;1.83;;;;;;;1.98;47.22;93515.91;4933494;28;20203;-70
2022/01/19 10:01:55;;;;;;;1.43;1.43;;;;;;;1.97;45.67;93500.97;4932889;28;20624;-71
2022/01/19 10:04:24;;;;;;;2.53;1.27;;;;;;;1.77;44.79;93517.47;4930660;28;20576;-72
2022/01/19 10:07:10;;;;;;;0.67;0.67;;;;;;;1.59;45.61;93501.63;4935627;28;20281;-71
2022/01/19 10:09:48;;;;;;;1.93;1.57;;;;;;;1.79;45.42;93508.38;4936394;28;20631;-71
2022/01/19 10:18:09;;;;;;;2.50;2.40;;;;;;;3.17;44.22;93496.97;4935707;28;20600;-73
2022/01/19 10:20:36;;;;;;;1.87;1.77;;;;;;;4.17;41.15;93513.34;4931242;28;20602;-72
2022/01/19 10:23:04;;;;;;;1.00;1.00;;;;;;;5.13;38.68;93530.28;4935988;28;20255;-73
2022/01/19 10:25:48;;;;;;;3.77;3.50;;;;;;;6.46;36.79;93544.03;4936732;28;20582;-71
2022/01/19 10:28:16;;;;;;;2.80;2.70;;;;;;;7.45;34.14;93562.72;4935336;28;20252;-72
2022/01/19 10:30:43;;;;;;;1.67;1.57;;;;;;;8.24;33.44;93561.34;4936444;28;20620;-72
2022/01/19 10:33:17;;;;;;;0.93;0.93;;;;;;;8.27;31.07;93581.44;4937254;28;20609;-72
2022/01/19 10:35:47;;;;;;;1.07;1.07;;;;;;;8.06;30.82;93574.25;4935267;28;20623;-73
2022/01/19 10:38:18;;;;;;;3.00;2.80;;;;;;;8.35;31.29;93563.69;4932720;28;20566;-73
2022/01/19 10:41:02;;;;;;;4.43;2.33;;;;;;;8.07;31.12;93553.28;4933978;28;20236;-73
2022/01/19 10:43:33;;;;;;;2.10;2.00;;;;;;;8.10;31.22;93546.53;4935173;28;20565;-72
2022/01/19 10:46:23;;;;;;;2.43;2.23;;;;;;;8.68;30.39;93555.47;4930243;28;20581;-72
2022/01/19 10:49:01;;;;;;;2.67;2.57;;;;;;;8.96;29.66;93536.38;4932664;28;20679;-72
2022/01/19 10:51:34;;;;;;;2.37;2.23;;;;;;;9.57;29.43;93547.63;4933398;28;20657;-73
2022/01/19 10:54:14;;;;;;;1.90;1.80;;;;;;;9.70;28.22;93543.91;4929786;28;20474;-72
2022/01/19 10:56:43;;;;;;;2.70;2.53;;;;;;;9.66;28.53;93533.94;4935310;28;20578;-72
2022/01/19 10:59:13;;;;;;;3.10;2.63;;;;;;;9.68;28.81;93525.47;4934410;28;20298;-72
2022/01/19 11:01:44;;;;;;;6.20;3.23;;;;;;;9.94;28.58;93512.19;4935694;28;20580;-73
2022/01/19 11:04:31;;;;;;;3.27;3.07;;;;;;;10.33;28.03;93521.25;4933378;28;20197;-72
2022/01/19 11:07:01;;;;;;;4.40;4.03;;;;;;;10.04;27.95;93508.53;4934591;28;20208;-73
2022/01/19 11:10:18;;;;;;;16.07;6.57;;;;;;;10.03;27.98;93499.31;4932213;28;20556;-73
2022/01/19 11:12:55;;;;;;;29.40;12.83;;;;;;;10.29;28.03;93508.75;4929897;28;20445;-73
2022/01/19 11:15:39;;;;;;;45.83;15.87;;;;;;;10.16;27.87;93459.41;4926927;28;20635;-72
2022/01/19 11:18:06;;;;;;;73.57;21.40;;;;;;;10.53;27.86;93489.56;4927344;28;20657;-72
2022/01/19 11:20:53;;;;;;;95.87;28.50;;;;;;;10.58;27.56;93493.63;4925531;28;20563;-72
2022/01/19 11:23:43;;;;;;;8.57;5.00;;;;;;;10.55;27.46;93485.28;4923356;28;20589;-73
2022/01/19 11:26:24;;;;;;;27.03;11.23;;;;;;;10.95;27.60;93480.72;4924861;28;20200;-73
2022/01/19 11:28:52;;;;;;;4.43;3.27;;;;;;;9.85;27.41;93464.47;4924422;28;20512;-74
2022/01/19 11:31:38;;;;;;;12.43;7.93;;;;;;;9.07;29.12;93458.03;4935161;28;20641;-72
2022/01/19 11:34:06;;;;;;;5.33;4.07;;;;;;;8.30;29.96;93441.25;4932674;28;20702;-73
2022/01/19 11:37:02;;;;;;;8.37;4.17;;;;;;;8.43;30.43;93435.97;4932679;28;20196;-73
2022/01/19 11:39:31;;;;;;;33.50;12.40;;;;;;;9.08;29.42;93384.88;4931209;28;20621;-72
2022/01/19 11:42:00;;;;;;;5.90;5.13;;;;;;;9.79;27.96;93397.34;4933546;28;20474;-71
2022/01/19 11:44:40;;;;;;;11.13;5.67;;;;;;;10.82;26.78;93443.22;4929475;28;20566;-71
2022/01/19 11:47:21;;;;;;;18.03;8.53;;;;;;;11.26;26.70;93450.25;4930243;28;20570;-71
2022/01/19 11:49:51;;;;;;;5.93;5.37;;;;;;;11.50;25.72;93458.75;4929775;28;20756;-71
2022/01/19 11:52:23;;;;;;;50.10;22.53;;;;;;;11.52;26.20;93432.53;4934312;28;20201;-71
2022/01/19 11:54:52;;;;;;;10.30;7.47;;;;;;;11.77;26.16;93454.53;4934463;28;20205;-72
2022/01/19 11:57:22;;;;;;;55.63;17.30;;;;;;;11.82;24.64;93476.28;4934168;28;20515;-71
2022/01/19 12:00:24;;;;;;;22.40;9.43;;;;;;;11.96;24.23;93473.25;4934914;28;20268;-72
2022/01/19 12:02:54;;;;;;;2.00;1.80;;;;;;;12.20;24.45;93462.28;4936357;28;20604;-72
2022/01/19 12:05:25;;;;;;;77.13;23.33;;;;;;;12.42;23.98;93472.47;4936076;28;20562;-72
2022/01/19 12:07:56;;;;;;;20.80;7.10;;;;;;;12.16;23.63;93470.03;4932829;28;20541;-71
2022/01/19 12:10:43;;;;;;;94.77;25.87;;;;;;;11.30;24.10;93479.63;4935753;28;20243;-72
2022/01/19 12:16:29;;;;;;;12.07;6.03;;;;;;;9.45;26.25;93435.25;4932205;28;20588;-73
2022/01/19 12:18:58;;;;;;;7.03;2.77;;;;;;;9.58;27.17;93423.94;4935224;28;20569;-72
2022/01/19 12:21:48;;;;;;;7.27;5.03;;;;;;;9.34;25.52;93424.59;4934251;28;20556;-72
2022/01/19 12:24:27;;;;;;;14.70;8.00;;;;;;;9.49;25.82;93418.31;4931560;28;20586;-72
2022/01/19 12:27:03;;;;;;;2.30;2.10;;;;;;;9.71;24.54;93413.53;4934273;28;20442;-72
2022/01/19 12:29:39;;;;;;;4.93;2.23;;;;;;;10.60;24.68;93408.47;4937459;28;20601;-72
2022/01/19 12:32:09;;;;;;;6.50;5.87;;;;;;;11.18;24.39;93407.50;4937042;28;20577;-72
2022/01/19 12:34:47;;;;;;;9.20;7.57;;;;;;;11.49;23.33;93411.56;4936512;28;20528;-72
2022/01/19 12:37:35;;;;;;;5.23;4.83;;;;;;;11.95;23.76;93408.28;4936560;28;20592;-73
2022/01/19 12:40:07;;;;;;;18.63;9.67;;;;;;;11.72;23.24;93414.13;4936705;28;20570;-72
2022/01/19 12:42:42;;;;;;;24.70;12.00;;;;;;;11.02;23.61;93408.03;4927981;28;20489;-72
2022/01/19 12:45:17;;;;;;;38.77;14.57;;;;;;;10.27;24.35;93396.84;4936149;28;20485;-72
2022/01/19 12:47:49;;;;;;;11.07;6.87;;;;;;;9.64;24.97;93404.47;4936145;28;20208;-72
2022/01/19 12:50:39;;;;;;;15.17;8.83;;;;;;;9.24;24.63;93400.44;4934143;28;20479;-72
2022/01/19 12:53:15;;;;;;;17.07;10.10;;;;;;;8.86;25.29;93396.34;4934627;28;20497;-72
2022/01/19 12:55:47;;;;;;;16.57;10.07;;;;;;;8.41;25.77;93398.22;4934272;28;20535;-72
2022/01/19 12:58:17;;;;;;;38.57;17.10;;;;;;;8.20;26.51;93376.84;4933954;28;20585;-72
2022/01/19 13:00:49;;;;;;;2.07;1.37;;;;;;;7.62;25.66;93387.25;4934686;28;20227;-72
2022/01/19 13:03:23;;;;;;;19.17;2.00;;;;;;;7.13;27.28;93373.94;4934686;28;20612;-72
2022/01/19 13:05:54;;;;;;;10.13;6.17;;;;;;;7.05;28.11;93361.50;4934649;28;20485;-72
2022/01/19 13:08:34;;;;;;;3.20;2.93;;;;;;;7.28;28.09;93346.84;4935660;28;20616;-73
2022/01/19 13:11:09;;;;;;;7.13;4.20;;;;;;;7.76;28.25;93339.22;4936268;28;20250;-73
2022/01/19 13:13:57;;;;;;;5.70;2.63;;;;;;;8.04;26.30;93352.03;4936181;28;20581;-73